createdAt,value
2023-05-06T00:00:32.023Z,102240.03
2023-05-06T00:02:33.720Z,102239.31
2023-05-06T00:04:35.502Z,102230.31
2023-05-06T00:06:41.392Z,102234.06
2023-05-06T00:08:44.216Z,102233.03
2023-05-06T00:10:49.760Z,102239.50
2023-05-06T00:12:51.340Z,102230.66
2023-05-06T00:14:53.346Z,102233.38
2023-05-06T00:16:56.986Z,102227.25
2023-05-06T00:18:58.579Z,102237.25
2023-05-06T00:21:00.402Z,102238.25
2023-05-06T00:23:02.020Z,102241.97
2023-05-06T00:25:04.156Z,102232.16
2023-05-06T00:27:07.721Z,102233.16
2023-05-06T00:29:09.341Z,102231.44
2023-05-06T00:31:10.962Z,102227.72
2023-05-06T00:33:12.888Z,102218.91
2023-05-06T00:35:14.515Z,102224.34
2023-05-06T00:37:16.386Z,102220.78
2023-05-06T00:39:18.159Z,102212.94
2023-05-06T00:41:19.830Z,102218.53
2023-05-06T00:43:23.024Z,102203.25
2023-05-06T00:45:25.811Z,102214.13
2023-05-06T00:47:27.860Z,102205.13
2023-05-06T00:49:30.504Z,102209.69
2023-05-06T00:51:33.388Z,102210.72
2023-05-06T00:53:35.813Z,102205.28
2023-05-06T00:55:39.939Z,102201.03
2023-05-06T00:57:42.403Z,102202.06
2023-05-06T00:59:45.399Z,102199.34
2023-05-06T01:01:47.124Z,102206.63
2023-05-06T01:03:51.150Z,102213.91
2023-05-06T01:06:04.633Z,102207.63
2023-05-06T01:08:13.136Z,102199.50
2023-05-06T01:10:24.722Z,102200.50
2023-05-06T01:12:30.920Z,102201.53
2023-05-06T01:14:40.326Z,102204.06
2023-05-06T01:16:45.193Z,102210.66
2023-05-06T01:18:49.785Z,102200.81
2023-05-06T01:20:53.935Z,102204.53
2023-05-06T01:22:56.143Z,102194.72
2023-05-06T01:24:59.054Z,102190.28
2023-05-06T01:27:00.688Z,102190.28
2023-05-06T01:29:03.159Z,102198.56
2023-05-06T01:31:10.163Z,102192.34
2023-05-06T01:33:18.346Z,102191.47
2023-05-06T01:35:25.324Z,102194.19
2023-05-06T01:37:34.841Z,102189.63
2023-05-06T01:39:37.770Z,102186.19
2023-05-06T01:41:43.283Z,102190.63
2023-05-06T01:43:48.207Z,102178.59
2023-05-06T01:45:54.098Z,102185.19
2023-05-06T01:47:56.929Z,102192.63
2023-05-06T01:49:59.390Z,102189.91
2023-05-06T01:52:02.272Z,102190.94
2023-05-06T01:54:04.944Z,102194.34
2023-05-06T01:56:07.313Z,102195.03
2023-05-06T01:58:10.332Z,102189.91
2023-05-06T02:00:12.732Z,102195.34
2023-05-06T02:02:14.189Z,102191.63
2023-05-06T02:04:15.974Z,102197.03
2023-05-06T02:06:17.844Z,102193.34
2023-05-06T02:08:19.437Z,102188.06
2023-05-06T02:10:21.382Z,102180.94
2023-05-06T02:12:23.009Z,102180.94
2023-05-06T02:14:26.073Z,102176.34
2023-05-06T02:16:28.042Z,102179.25
2023-05-06T02:18:29.988Z,102182.81
2023-05-06T02:20:31.945Z,102180.09
2023-05-06T02:22:33.753Z,102168.41
2023-05-06T02:24:35.348Z,102165.81
2023-05-06T02:26:37.007Z,102166.69
2023-05-06T02:28:38.472Z,102156.69
2023-05-06T02:30:41.456Z,102156.69
2023-05-06T02:32:43.263Z,102152.13
2023-05-06T02:34:44.831Z,102150.41
2023-05-06T02:36:46.715Z,102143.13
2023-05-06T02:38:48.569Z,102146.84
2023-05-06T02:40:52.855Z,102147.84
2023-05-06T02:42:54.795Z,102145.13
2023-05-06T02:44:56.719Z,102138.03
2023-05-06T02:46:59.658Z,102143.28
2023-05-06T02:49:01.536Z,102149.75
2023-05-06T02:51:05.127Z,102150.56
2023-05-06T02:53:07.204Z,102145.13
2023-05-06T02:55:09.168Z,102149.75
2023-05-06T02:57:11.022Z,102141.75
2023-05-06T02:59:12.575Z,102140.91
2023-05-06T03:01:14.230Z,102144.75
2023-05-06T03:03:17.490Z,102142.19
2023-05-06T03:05:19.328Z,102142.19
2023-05-06T03:07:20.902Z,102143.22
2023-05-06T03:09:23.255Z,102145.94
2023-05-06T03:11:25.124Z,102142.50
2023-05-06T03:13:26.701Z,102144.38
2023-05-06T03:15:28.532Z,102134.53
2023-05-06T03:17:30.143Z,102134.53
2023-05-06T03:19:33.320Z,102136.56
2023-05-06T03:21:34.961Z,102131.13
2023-05-06T03:23:36.695Z,102129.44
2023-05-06T03:25:38.515Z,102123.34
2023-05-06T03:27:40.151Z,102126.03
2023-05-06T03:29:41.782Z,102117.91
2023-05-06T03:31:43.416Z,102117.91
2023-05-06T03:33:44.945Z,102122.47
2023-05-06T03:35:47.997Z,102123.34
2023-05-06T03:37:49.590Z,102121.63
2023-05-06T03:39:52.303Z,102120.78
2023-05-06T03:41:54.678Z,102127.03
2023-05-06T03:43:59.058Z,102120.63
2023-05-06T03:46:00.704Z,102124.34
2023-05-06T03:48:02.637Z,102130.59
2023-05-06T03:50:05.069Z,102128.03
2023-05-06T03:52:08.368Z,102135.19
2023-05-06T03:54:10.515Z,102129.75
2023-05-06T03:56:12.582Z,102129.59
2023-05-06T03:58:14.436Z,102140.28
2023-05-06T04:00:16.500Z,102142.13
2023-05-06T04:02:18.337Z,102143.31
2023-05-06T04:04:20.184Z,102144.16
2023-05-06T04:06:23.616Z,102142.44
2023-05-06T04:08:29.429Z,102147.88
2023-05-06T04:10:31.021Z,102149.59
2023-05-06T04:12:32.920Z,102155.00
2023-05-06T04:14:35.192Z,102143.31
2023-05-06T04:16:38.672Z,102152.44
2023-05-06T04:18:40.404Z,102151.63
2023-05-06T04:20:42.355Z,102151.63
2023-05-06T04:22:44.185Z,102149.72
2023-05-06T04:24:47.434Z,102145.34
2023-05-06T04:26:49.021Z,102139.91
2023-05-06T04:28:50.626Z,102146.19
2023-05-06T04:30:52.426Z,102142.63
2023-05-06T04:32:54.269Z,102145.34
2023-05-06T04:34:56.239Z,102138.88
2023-05-06T04:36:57.902Z,102147.03
2023-05-06T04:38:59.573Z,102143.31
2023-05-06T04:41:03.154Z,102143.16
2023-05-06T04:43:04.700Z,102143.16
2023-05-06T04:45:07.474Z,102147.41
2023-05-06T04:47:09.590Z,102143.16
2023-05-06T04:49:12.529Z,102150.97
2023-05-06T04:51:14.529Z,102140.97
2023-05-06T04:53:16.874Z,102148.94
2023-05-06T04:55:18.899Z,102141.66
2023-05-06T04:57:22.102Z,102150.66
2023-05-06T04:59:23.956Z,102157.78
2023-05-06T05:01:26.681Z,102142.38
2023-05-06T05:03:28.747Z,102151.34
2023-05-06T05:05:33.677Z,102136.94
2023-05-06T05:07:35.267Z,102156.78
2023-05-06T05:09:36.960Z,102145.94
2023-05-06T05:11:38.548Z,102143.22
2023-05-06T05:13:41.570Z,102140.50
2023-05-06T05:15:43.564Z,102147.59
2023-05-06T05:17:45.438Z,102148.47
2023-05-06T05:19:47.443Z,102152.03
2023-05-06T05:21:49.847Z,102155.59
2023-05-06T05:23:51.455Z,102155.41
2023-05-06T05:25:53.052Z,102161.88
2023-05-06T05:27:54.664Z,102159.03
2023-05-06T05:29:58.454Z,102153.75
2023-05-06T05:32:00.043Z,102163.56
2023-05-06T05:34:02.059Z,102158.13
2023-05-06T05:36:04.588Z,102165.44
2023-05-06T05:38:06.231Z,102160.84
2023-05-06T05:40:09.542Z,102168.00
2023-05-06T05:42:11.370Z,102157.16
2023-05-06T05:44:13.461Z,102161.59
2023-05-06T05:46:16.719Z,102162.25
2023-05-06T05:48:20.103Z,102163.97
2023-05-06T05:50:22.327Z,102161.13
2023-05-06T05:52:24.196Z,102162.97
2023-05-06T05:54:25.865Z,102166.53
2023-05-06T05:56:27.399Z,102163.81
2023-05-06T05:58:28.929Z,102156.53
2023-05-06T06:00:30.811Z,102169.25
2023-05-06T06:02:33.978Z,102157.53
2023-05-06T06:04:35.632Z,102171.78
2023-05-06T06:06:37.479Z,102166.34
2023-05-06T06:08:41.417Z,102169.94
2023-05-06T06:10:43.241Z,102160.06
2023-05-06T06:12:45.178Z,102166.22
2023-05-06T06:14:46.766Z,102167.91
2023-05-06T06:16:48.499Z,102164.03
2023-05-06T06:18:51.627Z,102167.41
2023-05-06T06:20:53.787Z,102166.41
2023-05-06T06:22:55.501Z,102163.56
2023-05-06T06:24:58.729Z,102167.94
2023-05-06T06:27:03.099Z,102166.09
2023-05-06T06:29:04.967Z,102162.38
2023-05-06T06:31:06.832Z,102159.50
2023-05-06T06:33:08.679Z,102171.88
2023-05-06T06:35:12.055Z,102162.75
2023-05-06T06:37:13.720Z,102168.84
2023-05-06T06:39:15.558Z,102168.00
2023-05-06T06:41:17.989Z,102159.72
2023-05-06T06:43:19.772Z,102164.09
2023-05-06T06:45:22.728Z,102163.94
2023-05-06T06:47:24.567Z,102169.22
2023-05-06T06:49:27.534Z,102164.66
2023-05-06T06:51:30.502Z,102169.06
2023-05-06T06:53:32.612Z,102169.91
2023-05-06T06:55:34.381Z,102174.31
2023-05-06T06:57:36.542Z,102176.03
2023-05-06T06:59:38.142Z,102177.72
2023-05-06T07:01:40.956Z,102177.56
2023-05-06T07:03:42.685Z,102186.38
2023-05-06T07:05:44.367Z,102184.53
2023-05-06T07:07:47.803Z,102189.63
2023-05-06T07:09:49.697Z,102194.03
2023-05-06T07:11:51.475Z,102191.19
2023-05-06T07:13:53.389Z,102192.03
2023-05-06T07:15:55.289Z,102197.47
2023-05-06T07:17:57.073Z,102196.44
2023-05-06T07:19:58.973Z,102200.84
2023-05-06T07:22:00.941Z,102200.84
2023-05-06T07:24:05.665Z,102198.13
2023-05-06T07:26:08.397Z,102201.69
2023-05-06T07:28:11.918Z,102201.69
2023-05-06T07:30:14.539Z,102204.41
2023-05-06T07:32:16.452Z,102212.56
2023-05-06T07:34:18.135Z,102206.13
2023-05-06T07:36:21.192Z,102213.22
2023-05-06T07:38:23.690Z,102213.94
2023-05-06T07:40:26.571Z,102211.03
2023-05-06T07:42:28.473Z,102212.75
2023-05-06T07:44:30.118Z,102216.19
2023-05-06T07:46:31.945Z,102214.13
2023-05-06T07:48:33.853Z,102214.00
2023-05-06T07:50:35.571Z,102220.94
2023-05-06T07:52:37.413Z,102222.81
2023-05-06T07:54:39.023Z,102224.50
2023-05-06T07:56:42.097Z,102225.19
2023-05-06T07:58:43.959Z,102233.19
2023-05-06T08:00:46.080Z,102223.00
2023-05-06T08:02:47.927Z,102224.56
2023-05-06T08:04:52.898Z,102227.09
2023-05-06T08:06:54.559Z,102221.50
2023-05-06T08:08:56.513Z,102225.94
2023-05-06T08:10:58.915Z,102227.63
2023-05-06T08:13:02.008Z,102222.03
2023-05-06T08:15:04.320Z,102228.13
2023-05-06T08:17:05.840Z,102221.69
2023-05-06T08:19:07.646Z,102228.66
2023-05-06T08:21:09.306Z,102229.38
2023-05-06T08:23:11.122Z,102239.88
2023-05-06T08:25:12.905Z,102235.31
2023-05-06T08:27:14.947Z,102237.84
2023-05-06T08:29:18.532Z,102237.69
2023-05-06T08:31:20.415Z,102239.22
2023-05-06T08:33:23.268Z,102230.75
2023-05-06T08:35:25.136Z,102237.72
2023-05-06T08:37:27.148Z,102234.84
2023-05-06T08:39:28.674Z,102239.25
2023-05-06T08:41:31.255Z,102242.69
2023-05-06T08:43:40.227Z,102240.63
2023-05-06T08:45:43.646Z,102245.91
2023-05-06T08:47:46.690Z,102245.72
2023-05-06T08:49:48.937Z,102250.84
2023-05-06T08:51:52.037Z,102250.53
2023-05-06T08:53:57.849Z,102245.59
2023-05-06T08:56:03.191Z,102253.25
2023-05-06T08:58:07.052Z,102263.09
2023-05-06T09:00:11.133Z,102257.34
2023-05-06T09:02:14.717Z,102262.44
2023-05-06T09:04:17.739Z,102260.41
2023-05-06T09:06:19.365Z,102261.78
2023-05-06T09:08:21.033Z,102255.16
2023-05-06T09:10:22.686Z,102265.53
2023-05-06T09:12:24.700Z,102267.06
2023-05-06T09:14:26.398Z,102269.44
2023-05-06T09:16:32.245Z,102268.94
2023-05-06T09:18:36.946Z,102270.31
2023-05-06T09:20:41.270Z,102265.38
2023-05-06T09:22:43.099Z,102262.31
2023-05-06T09:24:45.006Z,102262.84
2023-05-06T09:26:47.733Z,102258.97
2023-05-06T09:28:51.851Z,102262.19
2023-05-06T09:30:53.694Z,102265.75
2023-05-06T09:32:55.362Z,102262.69
2023-05-06T09:34:58.707Z,102261.50
2023-05-06T09:37:01.358Z,102272.03
2023-05-06T09:39:04.054Z,102270.91
2023-05-06T09:41:07.096Z,102268.69
2023-05-06T09:43:11.181Z,102267.66
2023-05-06T09:45:16.125Z,102274.63
2023-05-06T09:47:18.019Z,102268.16
2023-05-06T09:49:20.080Z,102266.47
2023-05-06T09:51:23.272Z,102275.50
2023-05-06T09:53:25.427Z,102277.53
2023-05-06T09:55:28.730Z,102279.38
2023-05-06T09:57:32.334Z,102281.09
2023-05-06T09:59:34.481Z,102283.97
2023-05-06T10:01:37.970Z,102281.44
2023-05-06T10:03:40.020Z,102284.16
2023-05-06T10:05:42.142Z,102284.16
2023-05-06T10:07:48.368Z,102277.88
2023-05-06T10:09:50.672Z,102278.03
2023-05-06T10:11:54.279Z,102285.31
2023-05-06T10:13:56.340Z,102284.31
2023-05-06T10:16:02.011Z,102280.94
2023-05-06T10:18:05.631Z,102281.78
2023-05-06T10:20:10.177Z,102279.22
2023-05-06T10:22:19.868Z,102275.59
2023-05-06T10:24:32.888Z,102274.75
2023-05-06T10:26:36.914Z,102271.19
2023-05-06T10:28:41.221Z,102270.34
2023-05-06T10:30:44.285Z,102263.03
2023-05-06T10:32:46.653Z,102265.06
2023-05-06T10:34:57.023Z,102264.72
2023-05-06T10:37:00.387Z,102259.28
2023-05-06T10:39:03.341Z,102271.06
2023-05-06T10:41:08.371Z,102258.31
2023-05-06T10:43:24.422Z,102265.97
2023-05-06T10:45:26.573Z,102255.25
2023-05-06T10:47:28.214Z,102264.94
2023-05-06T10:49:30.030Z,102262.91
2023-05-06T10:51:32.446Z,102273.59
2023-05-06T10:53:55.291Z,102278.53
2023-05-06T10:56:08.979Z,102272.25
2023-05-06T10:58:14.467Z,102262.22
2023-05-06T11:00:17.057Z,102257.78
2023-05-06T11:02:19.892Z,102263.22
2023-05-06T11:04:23.372Z,102267.66
2023-05-06T11:06:40.455Z,102272.59
2023-05-06T11:08:44.661Z,102276.16
2023-05-06T11:10:48.261Z,102286.03
2023-05-06T11:12:52.480Z,102279.75
2023-05-06T11:14:54.931Z,102280.59
2023-05-06T11:16:58.499Z,102285.00
2023-05-06T11:19:00.345Z,102286.88
2023-05-06T11:21:37.926Z,102292.16
2023-05-06T11:24:08.491Z,102293.00
2023-05-06T11:26:11.772Z,102298.78
2023-05-06T11:28:16.672Z,102297.94
2023-05-06T11:30:19.037Z,102288.22
2023-05-06T11:32:25.255Z,102296.38
2023-05-06T11:34:28.284Z,102297.59
2023-05-06T11:36:30.143Z,102299.63
2023-05-06T11:38:41.872Z,102301.31
2023-05-06T11:40:44.029Z,102297.94
2023-05-06T11:42:46.068Z,102295.22
2023-05-06T11:44:49.425Z,102297.06
2023-05-06T11:46:51.194Z,102297.06
2023-05-06T11:48:52.865Z,102299.97
2023-05-06T11:50:55.054Z,102290.09
2023-05-06T11:52:57.875Z,102305.06
2023-05-06T11:55:02.750Z,102303.22
2023-05-06T11:57:04.500Z,102310.31
2023-05-06T11:59:06.359Z,102305.59
2023-05-06T12:01:10.158Z,102308.31
2023-05-06T12:03:14.318Z,102312.69
2023-05-06T12:05:16.231Z,102317.31
2023-05-06T12:07:19.386Z,102314.41
2023-05-06T12:09:22.798Z,102318.16
2023-05-06T12:11:24.499Z,102318.16
2023-05-06T12:13:27.078Z,102313.56
2023-05-06T12:15:30.621Z,102315.13
2023-05-06T12:17:33.670Z,102325.81
2023-05-06T12:19:35.881Z,102316.78
2023-05-06T12:21:39.102Z,102317.50
2023-05-06T12:23:50.741Z,102312.72
2023-05-06T12:26:01.670Z,102314.25
2023-05-06T12:28:13.912Z,102317.00
2023-05-06T12:30:15.699Z,102313.41
2023-05-06T12:32:17.369Z,102322.09
2023-05-06T12:34:36.644Z,102314.44
2023-05-06T12:36:43.063Z,102320.03
2023-05-06T12:38:51.113Z,102322.59
2023-05-06T12:40:54.239Z,102318.16
2023-05-06T12:42:56.125Z,102322.75
2023-05-06T12:44:57.921Z,102320.88
2023-05-06T12:47:00.732Z,102333.47
2023-05-06T12:49:03.582Z,102323.44
2023-05-06T12:51:22.053Z,102331.44
2023-05-06T12:53:32.200Z,102328.91
2023-05-06T12:55:37.485Z,102329.91
2023-05-06T12:57:39.113Z,102328.03
2023-05-06T12:59:43.585Z,102325.66
2023-05-06T13:01:45.481Z,102329.41
2023-05-06T13:03:47.349Z,102337.72
2023-05-06T13:05:48.973Z,102337.72
2023-05-06T13:07:52.370Z,102326.81
2023-05-06T13:09:53.939Z,102334.13
2023-05-06T13:11:55.599Z,102343.84
2023-05-06T13:13:57.417Z,102339.25
2023-05-06T13:15:59.103Z,102335.34
2023-05-06T13:18:00.847Z,102342.31
2023-05-06T13:20:05.069Z,102350.31
2023-05-06T13:22:07.143Z,102342.16
2023-05-06T13:24:10.406Z,102347.41
2023-05-06T13:26:12.034Z,102357.47
2023-05-06T13:28:14.218Z,102352.03
2023-05-06T13:30:17.754Z,102350.13
2023-05-06T13:32:19.549Z,102355.56
2023-05-06T13:34:21.384Z,102357.47
2023-05-06T13:36:23.197Z,102348.25
2023-05-06T13:38:24.811Z,102355.41
2023-05-06T13:40:27.899Z,102348.97
2023-05-06T13:42:29.965Z,102349.97
2023-05-06T13:44:31.707Z,102349.81
2023-05-06T13:46:33.389Z,102348.09
2023-05-06T13:48:35.523Z,102352.53
2023-05-06T13:50:37.364Z,102346.25
2023-05-06T13:52:39.211Z,102351.69
2023-05-06T13:54:40.995Z,102349.97
2023-05-06T13:56:44.150Z,102342.81
2023-05-06T13:58:46.135Z,102348.44
2023-05-06T14:00:48.176Z,102353.03
2023-05-06T14:02:50.031Z,102345.88
2023-05-06T14:04:51.651Z,102346.06
2023-05-06T14:06:53.592Z,102351.53
2023-05-06T14:08:55.156Z,102347.25
2023-05-06T14:10:58.154Z,102349.09
2023-05-06T14:13:02.714Z,102353.88
2023-05-06T14:15:06.838Z,102348.59
2023-05-06T14:17:09.799Z,102347.75
2023-05-06T14:19:11.869Z,102352.34
2023-05-06T14:21:13.643Z,102355.09
2023-05-06T14:23:15.426Z,102359.47
2023-05-06T14:25:17.727Z,102349.63
2023-05-06T14:27:21.105Z,102351.50
2023-05-06T14:29:24.594Z,102344.34
2023-05-06T14:31:26.477Z,102349.78
2023-05-06T14:33:28.108Z,102351.66
2023-05-06T14:35:30.204Z,102349.94
2023-05-06T14:37:32.019Z,102350.81
2023-05-06T14:39:33.714Z,102351.84
2023-05-06T14:41:35.354Z,102357.44
2023-05-06T14:43:38.661Z,102352.84
2023-05-06T14:45:41.848Z,102350.13
2023-05-06T14:47:44.064Z,102353.72
2023-05-06T14:49:45.948Z,102353.72
2023-05-06T14:51:47.874Z,102352.00
2023-05-06T14:53:49.498Z,102353.88
2023-05-06T14:55:51.341Z,102350.28
2023-05-06T14:57:52.896Z,102350.47
2023-05-06T14:59:54.516Z,102352.50
2023-05-06T15:01:57.600Z,102349.63
2023-05-06T15:03:59.459Z,102353.50
2023-05-06T15:06:01.146Z,102347.91
2023-05-06T15:08:03.045Z,102355.06
2023-05-06T15:10:05.752Z,102355.94
2023-05-06T15:12:07.936Z,102360.31
2023-05-06T15:14:09.711Z,102361.19
2023-05-06T15:16:11.603Z,102361.38
2023-05-06T15:18:14.703Z,102364.94
2023-05-06T15:20:16.760Z,102375.97
2023-05-06T15:22:18.420Z,102359.81
2023-05-06T15:24:20.784Z,102372.75
2023-05-06T15:26:25.093Z,102368.31
2023-05-06T15:28:26.732Z,102377.66
2023-05-06T15:30:28.467Z,102375.09
2023-05-06T15:32:30.461Z,102369.16
2023-05-06T15:34:33.652Z,102384.63
2023-05-06T15:36:36.040Z,102365.75
2023-05-06T15:38:57.702Z,102378.31
2023-05-06T15:41:01.402Z,102371.34
2023-05-06T15:43:04.617Z,102378.00
2023-05-06T15:45:07.712Z,102374.41
2023-05-06T15:47:09.712Z,102377.25
2023-05-06T15:51:17.892Z,102370.13
2023-05-06T15:53:19.502Z,102387.47
2023-05-06T15:55:21.208Z,102388.47
2023-05-06T15:57:22.886Z,102384.03
2023-05-06T15:59:24.405Z,102390.53
2023-05-06T16:01:44.989Z,102390.66
2023-05-06T16:03:48.533Z,102381.66
2023-05-06T16:05:53.466Z,102384.56
2023-05-06T16:07:56.735Z,102382.00
2023-05-06T16:09:58.303Z,102383.19
2023-05-06T16:11:59.900Z,102385.72
2023-05-06T16:14:01.558Z,102386.91
2023-05-06T16:16:03.276Z,102390.63
2023-05-06T16:18:05.676Z,102388.78
2023-05-06T16:20:08.917Z,102384.53
2023-05-06T16:22:10.663Z,102388.25
2023-05-06T16:24:13.800Z,102384.88
2023-05-06T16:26:15.720Z,102390.47
2023-05-06T16:28:17.844Z,102390.63
2023-05-06T16:30:19.646Z,102395.22
2023-05-06T16:32:21.664Z,102390.63
2023-05-06T16:34:23.427Z,102393.50
2023-05-06T16:36:25.198Z,102390.09
2023-05-06T16:38:26.805Z,102396.56
2023-05-06T16:40:30.176Z,102393.84
2023-05-06T16:42:32.042Z,102402.00
2023-05-06T16:44:33.802Z,102400.44
2023-05-06T16:46:35.767Z,102397.72
2023-05-06T16:48:37.477Z,102393.31
2023-05-06T16:50:40.217Z,102395.34
2023-05-06T16:52:42.276Z,102396.19
2023-05-06T16:54:44.046Z,102397.19
2023-05-06T16:56:52.244Z,102398.91
2023-05-06T16:58:54.600Z,102400.09
2023-05-06T17:00:56.397Z,102401.09
2023-05-06T17:02:58.187Z,102405.69
2023-05-06T17:05:00.185Z,102405.88
2023-05-06T17:07:01.813Z,102410.44
2023-05-06T17:09:03.527Z,102408.75
2023-05-06T17:11:06.753Z,102406.03
2023-05-06T17:13:10.000Z,102408.75
2023-05-06T17:15:12.366Z,102407.88
2023-05-06T17:17:14.206Z,102408.75
2023-05-06T17:19:15.751Z,102416.88
2023-05-06T17:21:17.904Z,102417.03
2023-05-06T17:23:19.791Z,102418.94
2023-05-06T17:25:21.411Z,102420.78
2023-05-06T17:27:23.025Z,102421.66
2023-05-06T17:29:26.189Z,102417.22
2023-05-06T17:31:28.151Z,102415.34
2023-05-06T17:33:30.165Z,102417.03
2023-05-06T17:35:31.818Z,102410.78
2023-05-06T17:37:33.479Z,102419.94
2023-05-06T17:39:35.157Z,102415.50
2023-05-06T17:41:36.753Z,102412.13
2023-05-06T17:43:38.685Z,102421.13
2023-05-06T17:45:41.945Z,102416.69
2023-05-06T17:47:43.577Z,102420.28
2023-05-06T17:49:45.465Z,102423.00
2023-05-06T17:51:47.034Z,102424.00
2023-05-06T17:53:48.884Z,102417.88
2023-05-06T17:55:51.023Z,102429.75
2023-05-06T17:57:53.184Z,102425.19
2023-05-06T17:59:54.791Z,102428.75
2023-05-06T18:01:58.689Z,102429.75
2023-05-06T18:04:00.519Z,102421.59
2023-05-06T18:06:02.529Z,102430.75
2023-05-06T18:08:06.032Z,102436.19
2023-05-06T18:10:08.836Z,102430.09
2023-05-06T18:12:10.485Z,102439.25
2023-05-06T18:14:12.343Z,102442.13
2023-05-06T18:16:14.148Z,102439.56
2023-05-06T18:18:17.312Z,102444.16
2023-05-06T18:20:18.895Z,102446.88
2023-05-06T18:22:20.789Z,102448.06
2023-05-06T18:24:22.498Z,102443.63
2023-05-06T18:26:42.721Z,102440.91
2023-05-06T18:28:46.422Z,102450.06
2023-05-06T18:30:48.350Z,102451.91
2023-05-06T18:32:51.366Z,102456.50
2023-05-06T18:34:55.623Z,102454.81
2023-05-06T18:36:57.230Z,102451.41
2023-05-06T18:38:58.992Z,102450.38
2023-05-06T18:41:01.823Z,102451.56
2023-05-06T18:43:03.676Z,102453.25
2023-05-06T18:45:06.881Z,102458.69
2023-05-06T18:47:09.075Z,102456.16
2023-05-06T18:49:10.673Z,102468.88
2023-05-06T18:51:15.441Z,102459.88
2023-05-06T18:53:17.092Z,102463.59
2023-05-06T18:55:18.769Z,102469.88
2023-05-06T18:57:20.431Z,102469.19
2023-05-06T18:59:22.020Z,102472.91
2023-05-06T19:01:24.296Z,102472.22
2023-05-06T19:03:26.036Z,102483.06
2023-05-06T19:05:27.668Z,102478.50
2023-05-06T19:07:30.810Z,102474.09
2023-05-06T19:09:32.374Z,102481.53
2023-05-06T19:11:34.055Z,102479.81
2023-05-06T19:13:35.835Z,102473.41
2023-05-06T19:15:37.532Z,102478.81
2023-05-06T19:17:39.211Z,102479.00
2023-05-06T19:19:40.755Z,102478.81
2023-05-06T19:21:42.532Z,102482.53
2023-05-06T19:23:45.769Z,102479.81
2023-05-06T19:25:47.324Z,102484.44
2023-05-06T19:27:48.889Z,102486.97
2023-05-06T19:29:50.706Z,102487.84
2023-05-06T19:31:52.284Z,102494.97
2023-05-06T19:33:53.928Z,102488.69
2023-05-06T19:35:55.476Z,102484.13
2023-05-06T19:37:57.418Z,102486.97
2023-05-06T19:40:00.579Z,102488.69
2023-05-06T19:42:02.108Z,102483.25
2023-05-06T19:44:03.847Z,102479.53
2023-05-06T19:46:05.602Z,102483.25
2023-05-06T19:48:07.447Z,102488.69
2023-05-06T19:50:11.458Z,102486.97
2023-05-06T19:52:13.444Z,102483.41
2023-05-06T19:54:15.231Z,102483.41
2023-05-06T19:56:18.327Z,102488.69
2023-05-06T19:58:19.990Z,102483.41
2023-05-06T20:00:22.137Z,102490.53
2023-05-06T20:02:24.072Z,102487.84
2023-05-06T20:04:25.927Z,102485.25
2023-05-06T20:06:27.681Z,102484.25
2023-05-06T20:08:29.405Z,102485.13
2023-05-06T20:10:31.151Z,102482.41
2023-05-06T20:12:34.454Z,102485.97
2023-05-06T20:14:36.059Z,102484.13
2023-05-06T20:16:39.205Z,102486.84
2023-05-06T20:18:43.084Z,102482.25
2023-05-06T20:20:44.689Z,102485.78
2023-05-06T20:22:46.909Z,102484.78
2023-05-06T20:24:49.922Z,102494.81
2023-05-06T20:26:52.304Z,102492.94
2023-05-06T20:28:56.615Z,102489.38
2023-05-06T20:30:58.292Z,102486.50
2023-05-06T20:33:00.049Z,102498.22
2023-05-06T20:35:02.130Z,102497.38
2023-05-06T20:37:03.733Z,102500.09
2023-05-06T20:39:05.602Z,102495.50
2023-05-06T20:41:07.581Z,102502.81
2023-05-06T20:43:09.315Z,102503.81
2023-05-06T20:45:14.553Z,102498.22
2023-05-06T20:47:16.249Z,102504.53
2023-05-06T20:49:18.721Z,102512.81
2023-05-06T20:51:21.022Z,102509.09
2023-05-06T20:53:22.768Z,102501.09
2023-05-06T20:55:24.896Z,102505.53
2023-05-06T20:57:26.776Z,102503.81
2023-05-06T20:59:28.351Z,102504.66
2023-05-06T21:01:32.360Z,102506.38
2023-05-06T21:03:34.253Z,102499.22
2023-05-06T21:05:36.633Z,102511.81
2023-05-06T21:07:38.651Z,102501.09
2023-05-06T21:09:40.229Z,102507.53
2023-05-06T21:11:42.039Z,102502.09
2023-05-06T21:13:43.606Z,102501.94
2023-05-06T21:15:45.310Z,102502.09
2023-05-06T21:17:49.225Z,102501.09
2023-05-06T21:19:51.202Z,102499.22
2023-05-06T21:21:53.025Z,102497.38
2023-05-06T21:23:54.709Z,102502.81
2023-05-06T21:25:56.257Z,102500.75
2023-05-06T21:27:57.908Z,102504.53
2023-05-06T21:29:59.524Z,102509.78
2023-05-06T21:32:01.144Z,102507.91
2023-05-06T21:34:04.300Z,102508.09
2023-05-06T21:36:06.453Z,102511.63
2023-05-06T21:38:08.110Z,102525.22
2023-05-06T21:40:11.377Z,102517.94
2023-05-06T21:42:13.206Z,102511.63
2023-05-06T21:44:15.387Z,102507.06
2023-05-06T21:46:17.236Z,102515.91
2023-05-06T21:48:19.237Z,102514.22
2023-05-06T21:50:22.602Z,102514.22
2023-05-06T21:52:24.699Z,102515.06
2023-05-06T21:54:26.332Z,102515.91
2023-05-06T21:56:30.370Z,102519.50
2023-05-06T21:58:32.312Z,102514.06
2023-05-06T22:00:33.994Z,102520.19
2023-05-06T22:02:35.731Z,102523.75
2023-05-06T22:04:37.369Z,102516.47
2023-05-06T22:06:40.739Z,102516.28
2023-05-06T22:08:42.460Z,102519.84
2023-05-06T22:10:44.051Z,102522.56
2023-05-06T22:12:45.900Z,102516.28
2023-05-06T22:14:47.484Z,102527.16
2023-05-06T22:16:49.434Z,102522.75
2023-05-06T22:18:51.835Z,102529.00
2023-05-06T22:20:55.696Z,102520.84
2023-05-06T22:22:59.012Z,102529.00
2023-05-06T22:25:02.052Z,102527.00
2023-05-06T22:27:03.917Z,102526.16
2023-05-06T22:29:06.999Z,102531.44
2023-05-06T22:31:08.734Z,102529.56
2023-05-06T22:33:10.535Z,102527.53
2023-05-06T22:35:12.499Z,102529.41
2023-05-06T22:37:15.036Z,102524.81
2023-05-06T22:39:18.494Z,102529.25
2023-05-06T22:41:20.386Z,102526.53
2023-05-06T22:43:22.513Z,102521.25
2023-05-06T22:45:24.508Z,102522.97
2023-05-06T22:47:27.266Z,102524.81
2023-05-06T22:49:29.092Z,102523.97
2023-05-06T22:51:30.687Z,102526.00
2023-05-06T22:53:32.529Z,102517.84
2023-05-06T22:55:37.959Z,102529.56
2023-05-06T22:57:39.928Z,102522.25
2023-05-06T22:59:41.813Z,102527.00
2023-05-06T23:01:43.769Z,102518.00
2023-05-06T23:03:45.804Z,102529.72
2023-05-06T23:05:47.397Z,102528.88
2023-05-06T23:07:49.188Z,102529.72
2023-05-06T23:09:51.090Z,102527.84
2023-05-06T23:11:54.212Z,102524.13
2023-05-06T23:13:56.032Z,102528.53
2023-05-06T23:15:57.591Z,102533.81
2023-05-06T23:17:59.292Z,102530.25
2023-05-06T23:20:01.230Z,102536.53
2023-05-06T23:22:03.284Z,102529.25
2023-05-06T23:24:05.207Z,102529.25